PWSweather.com
Personal Weather Stations
Station Observations
FM1HN
Gros MorneMQ 97213

Gros MorneMQ 97213

Lat: 14.7107851, Lon: -61.003055399999994

Elevation: 0

Station Type:

Latest ConditionsUpdated 4:00:01 AM GMT-04:56 Thursday, Dec 12, 2019
Currently Today's Max Today's Min Today's Average
Temperature 80.8°F27.1°C 80.8°F27.1°C 77.5°F25.3°C 79.6°F26.4°C
Dew Point 79.5°F26.4°C 79.5°F26.4°C 76.3°F24.6°C 78.5°F25.8°C
Winds Calm Calm 1.2 mph -1.9 kmh - - 0.1 mph 0.2 kmh
Wind Gusts -- 2.3 mph3.7 kmh - -
Humidity 96% 97% 96% 96%
Pressure 29.85 in1010.8 mb 29.91 in1012.9 mb 29.85 in1010.8 mb -
Precipitation - 0.06 in1.5 mm - -
Hour Temp Dew Point Humidity Winds Wind Gusts Pressure Precip Precip Rate Daily Precip Total
04:00 AM 80.8°F27.1°C 79.5°F26.4°C 96% Calm Calm -- 29.85 in1010.8 mb - 0.00 in0.0 mm 0.06 in1.5 mm
03:55 AM 80.8°F27.1°C 79.5°F26.4°C 96% Calm Calm 2.3 mph3.7 kmh 29.85 in1010.8 mb - 0.00 in0.0 mm 0.06 in1.5 mm
03:50 AM 80.8°F27.1°C 79.5°F26.4°C 96% 1.2 mph ENE1.9 kmh ENE 2.3 mph3.7 kmh 29.86 in1011.2 mb - 0.00 in0.0 mm 0.06 in1.5 mm
03:45 AM 80.6°F27.0°C 79.4°F26.3°C 96% Calm Calm -- 29.86 in1011.2 mb - 0.00 in0.0 mm 0.06 in1.5 mm
03:40 AM 80.6°F27.0°C 79.4°F26.3°C 96% Calm Calm 2.3 mph3.7 kmh 29.86 in1011.2 mb - 0.00 in0.0 mm 0.06 in1.5 mm
03:35 AM 80.6°F27.0°C 79.4°F26.3°C 96% Calm Calm -- 29.85 in1010.8 mb - 0.00 in0.0 mm 0.06 in1.5 mm
03:30 AM 80.4°F26.9°C 79.2°F26.2°C 96% Calm Calm -- 29.85 in1010.8 mb - 0.00 in0.0 mm 0.06 in1.5 mm
03:25 AM 80.4°F26.9°C 79.2°F26.2°C 96% Calm Calm -- 29.85 in1010.8 mb - 0.00 in0.0 mm 0.06 in1.5 mm
03:20 AM 80.4°F26.9°C 79.2°F26.2°C 96% Calm Calm -- 29.85 in1010.8 mb - 0.00 in0.0 mm 0.06 in1.5 mm
03:15 AM 80.4°F26.9°C 79.2°F26.2°C 96% Calm Calm -- 29.85 in1010.8 mb - 0.00 in0.0 mm 0.06 in1.5 mm
03:10 AM 80.4°F26.9°C 79.2°F26.2°C 96% Calm Calm -- 29.85 in1010.8 mb - 0.00 in0.0 mm 0.06 in1.5 mm
03:00 AM 80.2°F26.8°C 79.0°F26.1°C 96% Calm Calm -- 29.86 in1011.2 mb - 0.00 in0.0 mm 0.06 in1.5 mm
02:55 AM 80.2°F26.8°C 79.0°F26.1°C 96% Calm Calm -- 29.85 in1010.8 mb - 0.00 in0.0 mm 0.06 in1.5 mm
02:50 AM 80.1°F26.7°C 78.8°F26.0°C 96% Calm Calm -- 29.86 in1011.2 mb - 0.00 in0.0 mm 0.06 in1.5 mm
02:45 AM 80.1°F26.7°C 78.8°F26.0°C 96% Calm Calm -- 29.86 in1011.2 mb - 0.00 in0.0 mm 0.06 in1.5 mm
02:40 AM 79.9°F26.6°C 78.6°F25.9°C 96% Calm Calm 2.3 mph3.7 kmh 29.86 in1011.2 mb - 0.00 in0.0 mm 0.06 in1.5 mm
02:35 AM 79.9°F26.6°C 79.0°F26.1°C 97% Calm Calm 2.3 mph3.7 kmh 29.85 in1010.8 mb - 0.00 in0.0 mm 0.06 in1.5 mm
02:30 AM 79.9°F26.6°C 79.0°F26.1°C 97% Calm Calm -- 29.86 in1011.2 mb - 0.00 in0.0 mm 0.06 in1.5 mm
02:25 AM 79.7°F26.5°C 78.8°F26.0°C 97% Calm Calm -- 29.86 in1011.2 mb - 0.00 in0.0 mm 0.06 in1.5 mm
02:20 AM 79.7°F26.5°C 78.8°F26.0°C 97% Calm Calm -- 29.86 in1011.2 mb - 0.00 in0.0 mm 0.06 in1.5 mm
02:15 AM 79.7°F26.5°C 78.8°F26.0°C 97% Calm Calm -- 29.87 in1011.5 mb - 0.00 in0.0 mm 0.06 in1.5 mm
02:10 AM 79.7°F26.5°C 78.8°F26.0°C 97% Calm Calm -- 29.86 in1011.2 mb - 0.00 in0.0 mm 0.06 in1.5 mm
02:00 AM 79.7°F26.5°C 78.8°F26.0°C 97% Calm Calm -- 29.87 in1011.5 mb - 0.00 in0.0 mm 0.06 in1.5 mm
01:55 AM 79.7°F26.5°C 78.7°F25.9°C 97% Calm Calm -- 29.88 in1011.9 mb - 0.00 in0.0 mm 0.06 in1.5 mm
01:50 AM 79.5°F26.4°C 78.6°F25.9°C 97% Calm Calm -- 29.88 in1011.9 mb - 0.00 in0.0 mm 0.06 in1.5 mm
01:45 AM 79.5°F26.4°C 78.6°F25.9°C 97% Calm Calm -- 29.88 in1011.9 mb - 0.00 in0.0 mm 0.06 in1.5 mm
01:40 AM 79.5°F26.4°C 78.6°F25.9°C 97% Calm Calm -- 29.88 in1011.9 mb - 0.00 in0.0 mm 0.06 in1.5 mm
01:35 AM 79.5°F26.4°C 78.6°F25.9°C 97% Calm Calm -- 29.88 in1011.9 mb - 0.00 in0.0 mm 0.06 in1.5 mm
01:30 AM 79.5°F26.4°C 78.6°F25.9°C 97% Calm Calm -- 29.88 in1011.9 mb - 0.00 in0.0 mm 0.06 in1.5 mm
01:25 AM 79.5°F26.4°C 78.6°F25.9°C 97% Calm Calm -- 29.89 in1012.2 mb - 0.00 in0.0 mm 0.06 in1.5 mm
01:20 AM 79.3°F26.3°C 78.4°F25.8°C 97% Calm Calm -- 29.88 in1011.9 mb - 0.01 in0.3 mm 0.06 in1.5 mm
01:15 AM 79.3°F26.3°C 78.4°F25.8°C 97% Calm Calm -- 29.89 in1012.2 mb - 0.02 in0.5 mm 0.06 in1.5 mm
01:10 AM 79.3°F26.3°C 78.4°F25.8°C 97% Calm Calm -- 29.90 in1012.5 mb - 0.04 in1.0 mm 0.06 in1.5 mm
01:00 AM 79.2°F26.2°C 77.9°F25.5°C 96% Calm Calm -- 29.89 in1012.2 mb - 0.06 in1.5 mm 0.06 in1.5 mm
12:55 AM 79.2°F26.2°C 77.9°F25.5°C 96% Calm Calm -- 29.90 in1012.5 mb - 0.06 in1.5 mm 0.06 in1.5 mm
12:50 AM 79.0°F26.1°C 77.7°F25.4°C 96% Calm Calm -- 29.90 in1012.5 mb - 0.06 in1.5 mm 0.06 in1.5 mm
12:45 AM 79.0°F26.1°C 77.7°F25.4°C 96% Calm Calm -- 29.90 in1012.5 mb - 0.06 in1.5 mm 0.06 in1.5 mm
12:40 AM 78.8°F26.0°C 77.6°F25.3°C 96% Calm Calm -- 29.90 in1012.5 mb - 0.06 in1.5 mm 0.06 in1.5 mm
12:35 AM 78.6°F25.9°C 77.4°F25.2°C 96% Calm Calm -- 29.90 in1012.5 mb - 0.06 in1.5 mm 0.06 in1.5 mm
12:30 AM 78.6°F25.9°C 77.4°F25.2°C 96% Calm Calm -- 29.91 in1012.9 mb - 0.06 in1.5 mm 0.06 in1.5 mm
12:25 AM 78.4°F25.8°C 77.2°F25.1°C 96% Calm Calm 2.3 mph3.7 kmh 29.90 in1012.5 mb - 0.06 in1.5 mm 0.06 in1.5 mm
12:20 AM 78.1°F25.6°C 76.8°F24.9°C 96% 1.2 mph NNW1.9 kmh NNW 2.3 mph3.7 kmh 29.90 in1012.5 mb - 0.05 in1.3 mm 0.05 in1.3 mm
12:15 AM 77.9°F25.5°C 76.7°F24.8°C 96% Calm Calm 2.3 mph3.7 kmh 29.91 in1012.9 mb - 0.04 in1.0 mm 0.04 in1.0 mm
12:10 AM 77.7°F25.4°C 76.5°F24.7°C 96% Calm Calm -- 29.91 in1012.9 mb - 0.02 in0.5 mm 0.02 in0.5 mm
12:00 AM 77.5°F25.3°C 76.3°F24.6°C 96% Calm Calm -- 29.91 in1012.9 mb - 0.00 in0.0 mm 0.00 in0.0 mm